Time;durP1;ratioP1;P1;durP2;ratioP2;P2;SDS_P1;SDS_P2;PMS_P1;PMS_P2;Temp;Humidity;BMP_temperature;BMP_pressure;BME280_temperature;BME280_humidity;BME280_pressure;Samples;Min_cycle;Max_cycle;Signal;HPM_P1;HPM_P2
2022/04/02 00:02:08;;;;;;;6.50;3.90;;;1.80;99.90;;;;;;5062033;28;20438;-82
2022/04/02 00:04:34;;;;;;;7.40;4.90;;;1.80;99.90;;;;;;5061737;28;20466;-83
2022/04/02 00:07:02;;;;;;;7.40;4.00;;;1.80;99.90;;;;;;5062373;28;20486;-82
2022/04/02 00:09:30;;;;;;;7.57;4.90;;;1.90;99.90;;;;;;5060783;28;20854;-83
2022/04/02 00:11:57;;;;;;;8.50;5.23;;;1.90;99.90;;;;;;5061843;28;20451;-83
2022/04/02 00:14:23;;;;;;;6.43;4.30;;;1.90;99.90;;;;;;5061746;28;20463;-83
2022/04/02 00:16:50;;;;;;;6.23;4.70;;;1.90;99.90;;;;;;5060930;28;20427;-82
2022/04/02 00:19:17;;;;;;;6.47;4.50;;;2.00;99.90;;;;;;5060962;28;20442;-83
2022/04/02 00:21:44;;;;;;;5.17;3.77;;;2.00;99.90;;;;;;5061501;28;20466;-83
2022/04/02 00:24:11;;;;;;;6.23;3.37;;;2.00;99.90;;;;;;5059591;28;20487;-83
2022/04/02 00:26:39;;;;;;;8.73;3.67;;;2.00;99.90;;;;;;5059712;28;20463;-81
2022/04/02 00:29:10;;;;;;;6.07;3.70;;;1.80;99.90;;;;;;5059131;28;20495;-82
2022/04/02 00:31:36;;;;;;;6.30;3.37;;;1.80;99.90;;;;;;5058446;28;21021;-80
2022/04/02 00:34:03;;;;;;;6.93;3.97;;;1.70;99.90;;;;;;5057935;28;20982;-81
2022/04/02 00:36:34;;;;;;;6.63;4.20;;;1.70;99.90;;;;;;5058761;28;20434;-82
2022/04/02 00:39:01;;;;;;;5.53;3.50;;;1.60;99.90;;;;;;5058382;28;20468;-81
2022/04/02 00:41:28;;;;;;;8.50;4.10;;;1.60;99.90;;;;;;5058485;28;20987;-81
2022/04/02 00:43:58;;;;;;;10.18;3.58;;;1.60;99.90;;;;;;5057030;28;20827;-81
2022/04/02 00:46:25;;;;;;;5.78;3.80;;;1.60;99.90;;;;;;5057961;28;20235;-82
2022/04/02 00:48:54;;;;;;;3.83;3.03;;;1.60;99.90;;;;;;5057166;28;20311;-80
2022/04/02 00:51:22;;;;;;;6.47;3.17;;;1.70;99.90;;;;;;5058307;28;20478;-81
2022/04/02 00:53:51;;;;;;;4.18;2.83;;;1.60;99.90;;;;;;5057304;28;20437;-81
2022/04/02 00:56:18;;;;;;;4.05;2.03;;;1.60;99.90;;;;;;5057872;28;20209;-80
2022/04/02 00:58:46;;;;;;;7.10;2.87;;;1.60;99.90;;;;;;5057502;28;20214;-81
2022/04/02 01:01:14;;;;;;;4.40;2.83;;;1.60;99.90;;;;;;5057844;28;20447;-82
2022/04/02 01:03:42;;;;;;;3.40;2.30;;;1.60;99.90;;;;;;5056194;28;20461;-82
2022/04/02 01:06:10;;;;;;;5.38;3.22;;;1.60;99.90;;;;;;5064640;28;20202;-80
2022/04/02 01:08:37;;;;;;;6.27;2.60;;;1.60;99.90;;;;;;5066278;28;20233;-78
2022/04/02 01:11:04;;;;;;;3.60;2.03;;;1.60;99.90;;;;;;5065920;28;20459;-79
2022/04/02 01:13:31;;;;;;;5.70;2.00;;;1.70;99.90;;;;;;5066481;28;20452;-80
2022/04/02 01:15:58;;;;;;;4.07;2.00;;;1.70;99.90;;;;;;5064888;28;20201;-81
2022/04/02 01:18:26;;;;;;;5.22;2.30;;;1.70;99.90;;;;;;5064973;28;20225;-79
2022/04/02 01:20:54;;;;;;;5.10;2.70;;;1.80;99.90;;;;;;5066591;28;20204;-80
2022/04/02 01:23:28;;;;;;;5.30;2.33;;;1.70;99.90;;;;;;5064290;28;20458;-80
2022/04/02 01:25:57;;;;;;;4.73;2.60;;;1.80;99.90;;;;;;5066651;28;21015;-80
2022/04/02 01:28:24;;;;;;;5.73;2.80;;;1.80;99.90;;;;;;5065391;28;20565;-79
2022/04/02 01:30:51;;;;;;;4.77;2.30;;;1.80;99.90;;;;;;5058810;28;20454;-81
2022/04/02 01:33:18;;;;;;;10.18;3.17;;;1.80;99.90;;;;;;5057137;28;20548;-81
2022/04/02 01:35:45;;;;;;;4.13;2.40;;;1.80;99.90;;;;;;5058027;28;20260;-81
2022/04/02 01:38:12;;;;;;;6.55;2.47;;;1.80;99.90;;;;;;5058395;28;20232;-81
2022/04/02 01:40:40;;;;;;;6.23;2.20;;;1.80;99.90;;;;;;5057282;28;20205;-81
2022/04/02 01:43:07;;;;;;;2.90;2.10;;;1.80;99.90;;;;;;5056532;28;20429;-82
2022/04/02 01:45:34;;;;;;;5.40;2.63;;;1.70;99.90;;;;;;5057084;28;20464;-81
2022/04/02 01:48:00;;;;;;;4.10;3.00;;;1.80;99.90;;;;;;5057584;28;20486;-78
2022/04/02 01:50:27;;;;;;;5.93;2.70;;;1.80;99.90;;;;;;5057081;28;20464;-81
2022/04/02 01:52:54;;;;;;;4.78;2.58;;;1.70;99.90;;;;;;5057513;28;20447;-81
2022/04/02 01:55:21;;;;;;;3.10;2.40;;;1.70;99.90;;;;;;5056704;28;20201;-82
2022/04/02 01:57:49;;;;;;;7.93;3.05;;;1.70;99.90;;;;;;5056932;28;20452;-81
2022/04/02 02:00:17;;;;;;;3.60;2.50;;;1.70;99.90;;;;;;5056501;28;20725;-81
2022/04/02 02:02:43;;;;;;;6.63;2.30;;;1.80;99.90;;;;;;5056658;28;20538;-80
2022/04/02 02:05:11;;;;;;;6.57;2.55;;;1.70;99.90;;;;;;5055120;28;20480;-80
2022/04/02 02:07:37;;;;;;;4.05;2.40;;;1.80;99.90;;;;;;5055904;28;20217;-80
2022/04/02 02:10:05;;;;;;;4.43;2.58;;;1.80;99.90;;;;;;5055816;28;20267;-81
2022/04/02 02:12:32;;;;;;;3.90;2.30;;;1.70;99.90;;;;;;5056113;28;20209;-81
2022/04/02 02:15:00;;;;;;;4.53;2.65;;;1.70;99.90;;;;;;5055554;28;20447;-81
2022/04/02 02:17:27;;;;;;;3.42;2.08;;;1.60;99.90;;;;;;5055014;28;20205;-81
2022/04/02 02:19:55;;;;;;;4.80;2.60;;;1.70;99.90;;;;;;5056278;28;20320;-81
2022/04/02 02:22:21;;;;;;;4.13;2.00;;;1.70;99.90;;;;;;5055766;28;20443;-82
2022/04/02 02:24:48;;;;;;;5.70;1.83;;;1.70;99.90;;;;;;5056978;28;20507;-78
2022/04/02 02:27:15;;;;;;;6.65;2.05;;;1.70;99.90;;;;;;5055954;28;20489;-82
2022/04/02 02:29:42;;;;;;;5.00;2.10;;;1.70;99.90;;;;;;5056771;28;20311;-80
2022/04/02 02:32:10;;;;;;;12.07;3.17;;;1.70;99.90;;;;;;5057117;28;20201;-80
2022/04/02 02:37:21;;;;;;;5.28;2.10;;;1.70;99.90;;;;;;5055468;28;20470;-79
2022/04/02 02:39:47;;;;;;;5.40;2.07;;;1.70;99.90;;;;;;5056057;28;20219;-80
2022/04/02 02:42:14;;;;;;;4.57;2.63;;;1.70;99.90;;;;;;5056412;28;20494;-80
2022/04/02 02:44:41;;;;;;;5.07;2.80;;;1.70;99.90;;;;;;5055552;28;21204;-80
2022/04/02 02:47:11;;;;;;;3.87;2.03;;;1.70;99.90;;;;;;5055443;28;20451;-81
2022/04/02 02:49:39;;;;;;;4.37;2.30;;;1.70;99.90;;;;;;5054144;28;20584;-81
2022/04/02 02:52:07;;;;;;;3.80;2.60;;;1.70;99.90;;;;;;5053665;28;20478;-82
2022/04/02 02:54:33;;;;;;;3.50;1.80;;;1.80;99.90;;;;;;5054962;28;20460;-81
2022/04/02 02:57:00;;;;;;;3.47;1.60;;;1.80;99.90;;;;;;5055716;28;20538;-81
2022/04/02 02:59:27;;;;;;;4.60;2.00;;;1.70;99.90;;;;;;5055745;28;20499;-79
2022/04/02 03:01:54;;;;;;;4.43;1.97;;;1.80;99.90;;;;;;5055630;28;20205;-80
2022/04/02 03:04:23;;;;;;;11.73;3.00;;;1.80;99.90;;;;;;5054434;28;20543;-81
2022/04/02 03:06:50;;;;;;;3.95;2.00;;;1.70;99.90;;;;;;5055164;28;20506;-81
2022/04/02 03:09:17;;;;;;;5.20;2.10;;;1.70;99.90;;;;;;5056952;28;20221;-80
2022/04/02 03:11:44;;;;;;;5.00;2.20;;;1.70;99.90;;;;;;5059007;28;20245;-80
2022/04/02 03:14:11;;;;;;;2.87;1.70;;;1.80;99.90;;;;;;5058052;28;20463;-81
2022/04/02 03:16:38;;;;;;;6.17;2.40;;;1.70;99.90;;;;;;5059549;28;20463;-81
2022/04/02 03:19:06;;;;;;;3.57;1.83;;;1.70;99.90;;;;;;5059822;28;20487;-82
2022/04/02 03:21:34;;;;;;;5.47;2.25;;;1.60;99.90;;;;;;5059755;28;20469;-81
2022/04/02 03:24:01;;;;;;;3.13;1.80;;;1.60;99.90;;;;;;5057796;28;20209;-80
2022/04/02 03:26:28;;;;;;;3.70;1.93;;;1.60;99.90;;;;;;5059339;28;20431;-82
2022/04/02 03:28:54;;;;;;;4.35;1.92;;;1.70;99.90;;;;;;5058928;28;20489;-81
2022/04/02 03:31:22;;;;;;;2.85;2.05;;;1.60;99.90;;;;;;5059012;28;20220;-81
2022/04/02 03:33:49;;;;;;;5.00;2.13;;;1.60;99.90;;;;;;5058649;28;20198;-80
2022/04/02 03:36:15;;;;;;;3.80;2.03;;;1.60;99.90;;;;;;5059294;28;20538;-81
2022/04/02 03:38:44;;;;;;;7.03;2.10;;;1.60;99.90;;;;;;5060267;28;20467;-82
2022/04/02 03:41:13;;;;;;;4.27;2.30;;;1.60;99.90;;;;;;5058855;28;20264;-82
2022/04/02 03:43:39;;;;;;;3.57;2.00;;;1.60;99.90;;;;;;5058011;28;20882;-82
2022/04/02 03:48:50;;;;;;;2.83;1.77;;;1.60;99.90;;;;;;5058574;28;20478;-81
2022/04/02 03:51:18;;;;;;;3.42;2.00;;;1.60;99.90;;;;;;5057226;28;20542;-80
2022/04/02 03:53:46;;;;;;;6.68;2.20;;;1.60;99.90;;;;;;5058092;28;20205;-82
2022/04/02 03:56:13;;;;;;;3.35;1.90;;;1.50;99.90;;;;;;5059700;28;20216;-82
2022/04/02 03:58:40;;;;;;;3.40;2.20;;;1.50;99.90;;;;;;5058095;28;20225;-81
2022/04/02 04:01:07;;;;;;;4.43;2.17;;;1.60;99.90;;;;;;5058398;28;21126;-82
2022/04/02 04:03:33;;;;;;;3.92;1.95;;;1.60;99.90;;;;;;5057234;28;20572;-81
2022/04/02 04:06:01;;;;;;;3.33;1.87;;;1.60;99.90;;;;;;5058667;28;20227;-79
2022/04/02 04:08:28;;;;;;;3.95;2.58;;;1.50;99.90;;;;;;5058146;28;21003;-81
2022/04/02 04:10:56;;;;;;;2.40;1.80;;;1.50;99.90;;;;;;5058928;28;20216;-82
2022/04/02 04:13:23;;;;;;;6.63;2.33;;;1.50;99.90;;;;;;5057982;28;20452;-81
2022/04/02 04:15:50;;;;;;;8.63;2.07;;;1.60;99.90;;;;;;5058841;28;20201;-79
2022/04/02 04:18:17;;;;;;;2.93;2.07;;;1.50;99.90;;;;;;5059164;28;20479;-79
2022/04/02 04:20:43;;;;;;;3.28;1.65;;;1.50;99.90;;;;;;5058393;28;20450;-79
2022/04/02 04:23:10;;;;;;;3.90;1.80;;;1.50;99.90;;;;;;5057258;28;20201;-79
2022/04/02 04:25:37;;;;;;;3.30;1.47;;;1.50;99.90;;;;;;5057353;28;20768;-78
2022/04/02 04:28:05;;;;;;;2.37;1.20;;;1.50;99.90;;;;;;5057027;28;20907;-78
2022/04/02 04:30:32;;;;;;;4.30;1.90;;;1.50;99.90;;;;;;5056351;28;20854;-79
2022/04/02 04:32:59;;;;;;;4.13;1.80;;;1.60;99.90;;;;;;5056301;28;20452;-78
2022/04/02 04:35:26;;;;;;;3.50;1.60;;;1.50;99.90;;;;;;5057389;28;20452;-78
2022/04/02 04:37:53;;;;;;;3.50;2.30;;;1.50;99.90;;;;;;5056898;28;20967;-80
2022/04/02 04:40:19;;;;;;;4.10;1.60;;;1.60;99.90;;;;;;5057761;28;20201;-79
2022/04/02 04:42:46;;;;;;;2.80;1.90;;;1.50;99.90;;;;;;5057812;28;20456;-79
2022/04/02 04:45:14;;;;;;;3.97;2.38;;;1.60;99.90;;;;;;5056983;28;20952;-79
2022/04/02 04:47:46;;;;;;;4.07;1.80;;;1.50;99.90;;;;;;5057053;28;20735;-80
2022/04/02 04:50:13;;;;;;;4.73;1.83;;;1.60;99.90;;;;;;5057638;28;20224;-81
2022/04/02 04:52:40;;;;;;;4.38;2.20;;;1.50;99.90;;;;;;5056158;28;20460;-81
2022/04/02 04:55:07;;;;;;;5.13;1.80;;;1.50;99.90;;;;;;5055650;28;20205;-78
2022/04/02 04:57:35;;;;;;;2.87;1.53;;;1.50;99.90;;;;;;5056540;28;20984;-80
2022/04/02 05:00:02;;;;;;;3.83;1.60;;;1.50;99.90;;;;;;5057720;28;20456;-80
2022/04/02 05:02:31;;;;;;;2.67;1.65;;;1.50;99.90;;;;;;5057714;28;20465;-79
2022/04/02 05:04:58;;;;;;;4.68;2.00;;;1.50;99.90;;;;;;5051787;28;20262;-80
2022/04/02 05:07:25;;;;;;;3.88;1.70;;;1.50;99.90;;;;;;5057471;28;20217;-79
2022/04/02 05:09:52;;;;;;;4.15;2.63;;;1.40;99.90;;;;;;5047424;28;20221;-79
2022/04/02 05:12:19;;;;;;;3.20;1.53;;;1.40;99.90;;;;;;5057595;28;20201;-79
2022/04/02 05:14:46;;;;;;;2.75;1.55;;;1.40;99.90;;;;;;5054433;28;20450;-79
2022/04/02 05:17:13;;;;;;;2.63;1.73;;;1.40;99.90;;;;;;5057510;28;20216;-77
2022/04/02 05:19:42;;;;;;;4.00;2.63;;;1.50;99.90;;;;;;5057053;28;20710;-79
2022/04/02 05:22:10;;;;;;;2.45;1.60;;;1.50;99.90;;;;;;5056399;28;20845;-79
2022/04/02 05:24:37;;;;;;;5.28;1.92;;;1.30;99.90;;;;;;5056846;28;20705;-79
2022/04/02 05:27:04;;;;;;;4.13;2.20;;;0.90;99.90;;;;;;5056360;28;20288;-78
2022/04/02 05:29:31;;;;;;;3.95;1.67;;;1.50;99.90;;;;;;5057094;28;20749;-80
2022/04/02 05:31:58;;;;;;;5.30;2.50;;;1.60;99.90;;;;;;5055879;28;20205;-79
2022/04/02 05:34:24;;;;;;;2.77;1.70;;;1.50;99.90;;;;;;5055894;28;20681;-79
2022/04/02 05:36:53;;;;;;;3.85;2.28;;;1.70;99.90;;;;;;5056168;28;20456;-81
2022/04/02 05:39:19;;;;;;;3.90;1.87;;;2.00;99.90;;;;;;5056439;28;20308;-79
2022/04/02 05:41:48;;;;;;;4.50;1.73;;;1.60;99.90;;;;;;5054621;28;20465;-79
2022/04/02 05:44:15;;;;;;;5.20;1.95;;;1.60;99.90;;;;;;5054968;28;20460;-80
2022/04/02 05:46:42;;;;;;;4.17;2.67;;;1.60;99.90;;;;;;5053779;28;20216;-80
2022/04/02 05:49:09;;;;;;;3.38;2.17;;;2.40;99.90;;;;;;5056056;28;20492;-79
2022/04/02 05:51:36;;;;;;;6.33;2.50;;;0.80;99.90;;;;;;5057742;28;20216;-80
2022/04/02 05:54:04;;;;;;;4.13;2.13;;;1.70;99.90;;;;;;5056592;28;20543;-82
2022/04/02 05:56:33;;;;;;;4.97;2.50;;;2.10;99.90;;;;;;5056511;28;20444;-81
2022/04/02 05:59:00;;;;;;;3.10;1.80;;;1.70;99.90;;;;;;5058130;28;20476;-82
2022/04/02 06:01:27;;;;;;;4.75;1.90;;;1.80;99.90;;;;;;5057252;28;20797;-81
2022/04/02 06:03:54;;;;;;;3.35;2.20;;;1.80;99.90;;;;;;5056730;28;20677;-82
2022/04/02 06:06:21;;;;;;;4.88;2.53;;;1.80;99.90;;;;;;5056878;28;20227;-81
2022/04/02 06:08:48;;;;;;;6.87;2.27;;;1.80;99.90;;;;;;5057484;28;20233;-80
2022/04/02 06:11:16;;;;;;;3.40;1.97;;;1.90;99.90;;;;;;5057342;28;20526;-81
2022/04/02 06:13:43;;;;;;;4.40;2.27;;;1.90;99.90;;;;;;5054943;28;20547;-81
2022/04/02 06:16:10;;;;;;;3.70;2.03;;;2.00;99.90;;;;;;5056800;28;20436;-82
2022/04/02 06:18:37;;;;;;;6.75;2.47;;;1.90;99.90;;;;;;5055459;28;20546;-82
2022/04/02 06:21:04;;;;;;;4.70;1.97;;;1.90;99.90;;;;;;5056643;28;20240;-82
2022/04/02 06:23:32;;;;;;;3.05;1.77;;;2.00;99.90;;;;;;5055599;28;20466;-82
2022/04/02 06:25:59;;;;;;;3.30;1.80;;;2.00;99.90;;;;;;5056771;28;20252;-80
2022/04/02 06:28:28;;;;;;;4.53;1.80;;;2.10;99.90;;;;;;5056959;28;20486;-81
2022/04/02 06:30:56;;;;;;;4.17;1.87;;;2.10;99.90;;;;;;5055902;28;20484;-82
2022/04/02 06:33:22;;;;;;;3.47;2.27;;;2.00;99.90;;;;;;5056130;28;20460;-81
2022/04/02 06:35:49;;;;;;;5.10;1.93;;;2.00;99.90;;;;;;5056808;28;20459;-81
2022/04/02 06:38:16;;;;;;;5.03;1.93;;;2.10;99.90;;;;;;5057301;28;20471;-82
2022/04/02 06:40:43;;;;;;;4.33;2.10;;;2.20;99.90;;;;;;5057869;28;20820;-82
2022/04/02 06:43:10;;;;;;;3.40;2.33;;;2.20;99.90;;;;;;5057402;28;20440;-81
2022/04/02 06:45:38;;;;;;;3.75;2.00;;;2.30;99.90;;;;;;5056099;28;20519;-80
2022/04/02 06:48:05;;;;;;;6.93;2.10;;;2.30;99.90;;;;;;5056652;28;20197;-83
2022/04/02 06:50:32;;;;;;;10.13;2.53;;;2.30;99.90;;;;;;5049257;28;20554;-83
2022/04/02 06:52:59;;;;;;;3.37;1.90;;;2.20;99.90;;;;;;5058283;28;20922;-81
2022/04/02 06:55:40;;;;;;;4.50;2.00;;;2.60;99.90;;;;;;5055961;28;20431;-81
2022/04/02 06:58:08;;;;;;;7.17;2.20;;;2.60;99.90;;;;;;5056513;28;20595;-83
2022/04/02 07:00:35;;;;;;;3.95;2.22;;;2.70;99.90;;;;;;5056891;28;20492;-82
2022/04/02 07:03:04;;;;;;;3.73;1.63;;;2.80;99.90;;;;;;5053686;28;20205;-83
2022/04/02 07:05:31;;;;;;;4.13;2.23;;;2.90;99.90;;;;;;5059896;28;20555;-81
2022/04/02 07:07:58;;;;;;;5.13;2.70;;;2.80;99.90;;;;;;5058198;28;20458;-83
2022/04/02 07:10:25;;;;;;;5.70;2.43;;;2.80;99.90;;;;;;5059643;28;20574;-80
2022/04/02 07:12:52;;;;;;;4.30;2.40;;;2.90;99.90;;;;;;5055897;28;20443;-81
2022/04/02 07:15:18;;;;;;;4.10;2.20;;;2.90;99.90;;;;;;5055107;28;20455;-82
2022/04/02 07:17:45;;;;;;;3.40;2.20;;;2.90;99.90;;;;;;5045102;28;20540;-82
2022/04/02 07:20:19;;;;;;;2.97;2.20;;;3.00;99.90;;;;;;5055674;28;20467;-82
2022/04/02 07:22:47;;;;;;;7.23;2.10;;;3.00;99.90;;;;;;5043803;28;20459;-82
2022/04/02 07:25:14;;;;;;;3.70;1.77;;;3.10;99.90;;;;;;5054128;28;20452;-80
2022/04/02 07:27:43;;;;;;;2.80;1.50;;;3.00;99.90;;;;;;5071408;28;20444;-80
2022/04/02 07:30:11;;;;;;;5.03;2.53;;;3.10;99.90;;;;;;5072442;28;20476;-80
2022/04/02 07:32:38;;;;;;;7.27;2.63;;;3.10;99.90;;;;;;5072434;28;20455;-81
2022/04/02 07:35:05;;;;;;;4.57;2.60;;;3.10;99.90;;;;;;5070929;28;20462;-80
2022/04/02 07:37:52;;;;;;;4.23;2.23;;;3.00;99.90;;;;;;5071649;28;20478;-80
2022/04/02 07:40:24;;;;;;;6.17;2.00;;;3.00;99.90;;;;;;5070644;28;20441;-81
2022/04/02 07:43:01;;;;;;;5.40;1.63;;;3.20;99.90;;;;;;5060536;28;20458;-80
2022/04/02 07:45:32;;;;;;;4.00;2.30;;;3.20;99.90;;;;;;5061833;28;20451;-83
2022/04/02 07:47:59;;;;;;;4.00;1.90;;;3.30;99.90;;;;;;5057018;28;21003;-82
2022/04/02 07:50:29;;;;;;;5.33;2.50;;;3.50;99.90;;;;;;5048675;28;20535;-83
2022/04/02 07:52:58;;;;;;;4.53;2.80;;;3.40;99.90;;;;;;5042979;28;20462;-81
2022/04/02 07:55:26;;;;;;;4.60;2.23;;;3.50;99.90;;;;;;5059413;28;20458;-80
2022/04/02 07:57:54;;;;;;;4.27;2.27;;;3.50;99.90;;;;;;5060110;28;20955;-80
2022/04/02 08:00:26;;;;;;;3.87;1.93;;;3.70;99.90;;;;;;5059959;28;20436;-81
2022/04/02 08:02:53;;;;;;;3.43;2.23;;;3.90;99.90;;;;;;5060254;28;20459;-81
2022/04/02 08:05:21;;;;;;;4.70;2.30;;;4.00;99.90;;;;;;5060014;28;20918;-80
2022/04/02 08:07:52;;;;;;;5.13;2.30;;;4.10;99.90;;;;;;5062287;28;20456;-81
2022/04/02 08:10:23;;;;;;;4.97;2.10;;;4.20;99.90;;;;;;5059363;28;20490;-79
2022/04/02 08:12:50;;;;;;;5.83;2.40;;;4.30;99.90;;;;;;5065199;28;20481;-80
2022/04/02 08:15:18;;;;;;;5.43;2.50;;;4.20;99.90;;;;;;5056788;28;20465;-82
2022/04/02 08:17:47;;;;;;;5.23;2.10;;;4.20;99.90;;;;;;5061591;28;20448;-82
2022/04/02 08:20:16;;;;;;;4.37;2.33;;;3.80;99.90;;;;;;5061128;28;20994;-81
2022/04/02 08:22:43;;;;;;;4.40;2.23;;;4.00;99.90;;;;;;5058888;28;20447;-81
2022/04/02 08:25:10;;;;;;;3.70;2.33;;;4.10;99.90;;;;;;5048786;28;20527;-81
2022/04/02 08:27:52;;;;;;;4.43;2.10;;;4.30;99.90;;;;;;5059090;28;20464;-80
2022/04/02 08:30:26;;;;;;;6.60;2.70;;;4.40;99.90;;;;;;5059286;28;20476;-81
2022/04/02 08:33:08;;;;;;;3.87;2.23;;;4.60;99.90;;;;;;5058793;28;20449;-81
2022/04/02 08:35:41;;;;;;;6.17;2.83;;;4.50;99.90;;;;;;5059014;28;20544;-80
2022/04/02 08:38:23;;;;;;;3.53;2.17;;;4.80;99.90;;;;;;5059842;28;20439;-82
2022/04/02 08:41:44;;;;;;;3.53;2.10;;;4.80;99.90;;;;;;5059377;28;20540;-82
2022/04/02 08:44:46;;;;;;;3.87;2.07;;;5.00;99.90;;;;;;5058558;28;20535;-81
2022/04/02 08:47:30;;;;;;;3.03;2.07;;;5.20;99.90;;;;;;5057673;28;20443;-80
2022/04/02 08:50:06;;;;;;;6.33;2.53;;;5.40;99.90;;;;;;5057579;28;20472;-82
2022/04/02 08:52:52;;;;;;;3.20;1.90;;;5.50;99.90;;;;;;5058449;28;20827;-81
2022/04/02 08:55:21;;;;;;;3.47;1.90;;;6.00;99.90;;;;;;5059249;28;20479;-82
2022/04/02 08:58:10;;;;;;;7.13;2.97;;;6.10;99.90;;;;;;5058593;28;20993;-80
2022/04/02 09:00:41;;;;;;;5.00;2.70;;;6.10;99.90;;;;;;5029484;28;20456;-81
2022/04/02 09:03:36;;;;;;;3.97;2.30;;;6.00;99.90;;;;;;5058529;28;20474;-80
2022/04/02 09:06:38;;;;;;;5.40;3.07;;;6.10;99.90;;;;;;5057402;28;20534;-79
2022/04/02 09:09:06;;;;;;;5.23;2.77;;;6.10;99.90;;;;;;5059421;28;20486;-81
2022/04/02 09:11:55;;;;;;;4.00;2.57;;;6.50;99.90;;;;;;5060706;28;21020;-80
2022/04/02 09:14:40;;;;;;;3.83;2.27;;;6.70;99.90;;;;;;5061614;28;20442;-79
2022/04/02 09:17:31;;;;;;;5.30;2.70;;;6.90;99.90;;;;;;5061656;28;20438;-79
2022/04/02 09:20:18;;;;;;;3.60;1.90;;;6.50;99.90;;;;;;5060561;28;20467;-79
2022/04/02 09:23:06;;;;;;;4.07;2.23;;;6.50;99.90;;;;;;5061291;28;20451;-80
2022/04/02 09:26:22;;;;;;;4.40;2.47;;;6.60;99.90;;;;;;5061234;28;20454;-80
2022/04/02 09:29:11;;;;;;;4.20;2.40;;;6.80;99.90;;;;;;5061208;28;20915;-78
2022/04/02 09:32:09;;;;;;;4.20;2.53;;;7.00;99.90;;;;;;5058745;28;20487;-80
2022/04/02 09:34:58;;;;;;;4.63;2.70;;;7.20;99.90;;;;;;5057490;28;20431;-81
2022/04/02 09:37:54;;;;;;;4.83;2.47;;;7.00;99.90;;;;;;5058424;28;20434;-80
2022/04/02 09:40:34;;;;;;;4.50;2.60;;;7.00;99.90;;;;;;5057535;28;20470;-78
2022/04/02 09:43:05;;;;;;;7.10;2.63;;;7.30;99.90;;;;;;5057998;28;20439;-80
2022/04/02 09:45:44;;;;;;;5.10;2.77;;;8.00;99.90;;;;;;5055998;28;20448;-81
2022/04/02 09:48:18;;;;;;;4.10;2.60;;;9.70;99.90;;;;;;5058948;28;20912;-80
2022/04/02 09:50:49;;;;;;;5.17;3.80;;;9.80;99.90;;;;;;5059003;28;20478;-81
2022/04/02 09:53:24;;;;;;;6.30;2.77;;;9.90;98.90;;;;;;5057098;28;20439;-78
2022/04/02 09:55:57;;;;;;;3.60;2.23;;;9.70;99.90;;;;;;5057534;28;20458;-79
2022/04/02 09:58:54;;;;;;;4.83;2.50;;;10.00;99.90;;;;;;5059889;28;20470;-79
2022/04/02 10:01:28;;;;;;;3.53;2.30;;;9.00;93.90;;;;;;5060475;28;20435;-78
2022/04/02 10:03:59;;;;;;;4.50;2.33;;;9.10;99.10;;;;;;5059351;28;20533;-79
2022/04/02 10:06:31;;;;;;;5.10;2.47;;;9.90;95.80;;;;;;5059420;28;20454;-79
2022/04/02 10:09:10;;;;;;;4.60;1.93;;;10.90;96.30;;;;;;5059081;28;20504;-79
2022/04/02 10:11:44;;;;;;;4.80;2.70;;;11.60;92.00;;;;;;5060568;28;20488;-78
2022/04/02 10:14:12;;;;;;;3.87;2.33;;;10.20;84.60;;;;;;5057823;28;20453;-79
2022/04/02 10:16:41;;;;;;;7.40;3.10;;;8.50;91.10;;;;;;5058352;28;20462;-79
2022/04/02 10:19:10;;;;;;;4.23;2.33;;;7.50;99.90;;;;;;5058981;28;20510;-81
2022/04/02 10:21:38;;;;;;;6.07;3.37;;;8.60;99.90;;;;;;5057703;28;20462;-79
2022/04/02 10:24:19;;;;;;;7.00;3.33;;;8.80;99.90;;;;;;5056570;28;20475;-80
2022/04/02 10:26:50;;;;;;;5.93;3.70;;;8.10;99.90;;;;;;5058598;28;20870;-80
2022/04/02 10:29:31;;;;;;;5.80;3.23;;;6.90;99.90;;;;;;5059336;28;20462;-81
2022/04/02 10:32:01;;;;;;;6.37;3.47;;;6.70;99.90;;;;;;5057685;28;20535;-80
2022/04/02 10:34:37;;;;;;;6.47;3.70;;;6.40;99.90;;;;;;5057393;28;20451;-81
2022/04/02 10:37:10;;;;;;;5.40;2.97;;;6.80;99.90;;;;;;5058430;28;20445;-79
2022/04/02 10:39:45;;;;;;;6.27;3.10;;;7.20;99.90;;;;;;5055146;28;20484;-80
2022/04/02 10:42:17;;;;;;;3.80;3.00;;;8.30;99.90;;;;;;5043617;28;20448;-81
2022/04/02 10:44:47;;;;;;;4.50;3.10;;;8.80;99.90;;;;;;5051572;28;20456;-81
2022/04/02 10:47:17;;;;;;;4.30;2.83;;;8.70;99.90;;;;;;5057246;28;20578;-80
2022/04/02 10:49:48;;;;;;;4.70;2.50;;;9.00;99.90;;;;;;5058356;28;20470;-80
2022/04/02 10:52:17;;;;;;;4.70;2.33;;;9.40;99.90;;;;;;5056371;28;20987;-81
2022/04/02 10:54:50;;;;;;;5.07;2.80;;;10.10;99.90;;;;;;5054426;28;20455;-81
2022/04/02 10:57:18;;;;;;;6.40;3.53;;;10.10;99.90;;;;;;5051423;28;20453;-81
2022/04/02 10:59:47;;;;;;;6.23;3.03;;;9.30;99.90;;;;;;5053277;28;20490;-81
2022/04/02 11:02:22;;;;;;;4.60;2.10;;;7.90;99.90;;;;;;5055834;28;20456;-80
2022/04/02 11:04:58;;;;;;;3.83;2.10;;;7.40;99.90;;;;;;5056713;28;20493;-79
2022/04/02 11:07:28;;;;;;;6.00;2.77;;;6.70;99.90;;;;;;5057151;28;20487;-79
2022/04/02 11:09:59;;;;;;;5.10;2.47;;;6.30;99.90;;;;;;5058982;28;20483;-82
2022/04/02 11:12:29;;;;;;;4.60;2.73;;;6.20;99.90;;;;;;5066914;28;20511;-82
2022/04/02 11:15:06;;;;;;;5.30;3.13;;;6.00;99.90;;;;;;5067059;28;20910;-83
2022/04/02 11:17:35;;;;;;;7.10;3.10;;;5.70;99.90;;;;;;5059644;28;20476;-83
2022/04/02 11:20:08;;;;;;;7.13;4.33;;;5.40;99.90;;;;;;5054095;28;20485;-83
2022/04/02 11:22:57;;;;;;;6.73;3.77;;;5.20;99.90;;;;;;5068305;28;20451;-83
2022/04/02 11:25:29;;;;;;;7.03;4.13;;;5.20;99.90;;;;;;5070088;28;20438;-82
2022/04/02 11:27:58;;;;;;;8.63;3.53;;;5.20;99.90;;;;;;5067808;28;20432;-82
2022/04/02 11:30:28;;;;;;;5.20;3.50;;;5.20;99.90;;;;;;5069295;28;20452;-81
2022/04/02 11:33:05;;;;;;;8.43;4.00;;;5.20;99.90;;;;;;5069954;28;20485;-81
2022/04/02 11:35:36;;;;;;;4.53;2.80;;;5.20;99.90;;;;;;5071173;28;20551;-82
2022/04/02 11:38:14;;;;;;;6.03;3.60;;;4.90;99.90;;;;;;5070181;28;20526;-82
2022/04/02 11:40:47;;;;;;;5.27;3.20;;;5.50;99.90;;;;;;5059483;28;20458;-82
2022/04/02 11:43:17;;;;;;;5.17;3.33;;;5.40;99.90;;;;;;5068239;28;20547;-82
2022/04/02 11:45:47;;;;;;;4.67;2.63;;;5.50;99.90;;;;;;5049750;28;20478;-82
2022/04/02 11:48:15;;;;;;;5.10;3.00;;;5.60;99.90;;;;;;5049135;28;20474;-81
2022/04/02 11:50:44;;;;;;;11.77;4.30;;;5.60;99.90;;;;;;5062049;28;20526;-81
2022/04/02 11:53:12;;;;;;;6.47;3.30;;;6.00;99.90;;;;;;5069828;28;20467;-82
2022/04/02 11:55:40;;;;;;;6.07;3.20;;;6.00;99.90;;;;;;5070865;28;20478;-82
2022/04/02 11:58:10;;;;;;;3.87;3.13;;;6.10;99.90;;;;;;5072879;28;20456;-82
2022/04/02 12:00:38;;;;;;;5.80;3.20;;;5.90;99.90;;;;;;5065180;28;20453;-79
2022/04/02 12:03:20;;;;;;;5.10;3.00;;;6.00;99.90;;;;;;5055724;28;20450;-81
2022/04/02 12:05:49;;;;;;;5.40;2.30;;;6.10;99.90;;;;;;5059249;28;20443;-82
2022/04/02 12:08:28;;;;;;;6.10;3.37;;;5.80;99.90;;;;;;5058369;28;20473;-82
2022/04/02 12:10:55;;;;;;;5.80;3.10;;;5.70;99.90;;;;;;5047851;28;20456;-82
2022/04/02 12:13:24;;;;;;;6.00;3.53;;;5.50;99.90;;;;;;5058851;28;20464;-81
2022/04/02 12:16:02;;;;;;;6.23;2.97;;;5.40;99.90;;;;;;5058591;28;20486;-80
2022/04/02 12:18:30;;;;;;;6.60;3.00;;;5.30;99.90;;;;;;5058625;28;20475;-81
2022/04/02 12:21:04;;;;;;;8.33;3.53;;;5.30;99.90;;;;;;5057928;28;20872;-81
2022/04/02 12:23:31;;;;;;;5.23;3.37;;;5.40;99.90;;;;;;5058061;28;20478;-80
2022/04/02 12:26:00;;;;;;;5.07;2.87;;;5.30;99.90;;;;;;5058498;28;20507;-78
2022/04/02 12:28:29;;;;;;;4.37;2.73;;;5.40;99.90;;;;;;5058123;28;20864;-80
2022/04/02 12:31:04;;;;;;;5.07;3.30;;;5.30;99.90;;;;;;5058875;28;20542;-78
2022/04/02 12:33:31;;;;;;;5.50;3.23;;;5.40;99.90;;;;;;5059048;28;20451;-80
2022/04/02 12:36:00;;;;;;;6.27;3.87;;;5.30;99.90;;;;;;5058701;28;20890;-80
2022/04/02 12:38:29;;;;;;;5.37;3.33;;;5.50;99.90;;;;;;5057661;28;20475;-78
2022/04/02 12:40:57;;;;;;;3.60;2.90;;;5.60;99.90;;;;;;5056722;28;20458;-80
2022/04/02 12:43:30;;;;;;;5.63;2.77;;;5.80;99.90;;;;;;5056449;28;20824;-80
2022/04/02 12:45:59;;;;;;;4.50;2.90;;;5.90;99.90;;;;;;5056774;28;20458;-81
2022/04/02 12:48:27;;;;;;;5.63;2.73;;;5.90;99.90;;;;;;5056390;28;20473;-80
2022/04/02 12:50:57;;;;;;;5.97;3.30;;;5.90;99.90;;;;;;5056004;28;21142;-79
2022/04/02 12:53:32;;;;;;;5.00;3.17;;;6.00;99.90;;;;;;5055578;28;20432;-79
2022/04/02 12:56:00;;;;;;;8.43;3.80;;;6.30;99.90;;;;;;5056348;28;20455;-80
2022/04/02 12:58:38;;;;;;;4.33;2.93;;;6.60;99.90;;;;;;5057944;28;20477;-79
2022/04/02 13:01:12;;;;;;;5.67;3.40;;;6.70;99.90;;;;;;5056947;28;20525;-80
2022/04/02 13:03:44;;;;;;;5.60;2.87;;;6.60;99.90;;;;;;5057645;28;20460;-79
2022/04/02 13:06:20;;;;;;;4.27;3.07;;;6.50;99.90;;;;;;5057337;28;20903;-79
2022/04/02 13:08:56;;;;;;;4.03;2.90;;;6.70;99.90;;;;;;5055886;28;20471;-80
2022/04/02 13:11:44;;;;;;;4.60;2.70;;;7.10;99.90;;;;;;5057197;28;21003;-80
2022/04/02 13:14:20;;;;;;;4.17;3.00;;;7.00;99.90;;;;;;5056079;28;20454;-80
2022/04/02 13:16:48;;;;;;;7.97;3.00;;;7.00;99.90;;;;;;5056870;28;20458;-81
2022/04/02 13:22:07;;;;;;;5.50;3.37;;;7.20;99.90;;;;;;5054498;28;20844;-81
2022/04/02 13:24:43;;;;;;;8.13;2.80;;;7.30;99.90;;;;;;5056618;28;20876;-80